sensor_id;sensor_type;location;lat;lon;timestamp;P1;durP1;ratioP1;P2;durP2;ratioP2
20034;SDS011;10178;48.034;9.800;2023-03-24T00:02:07;5.97;;;3.92;;
20034;SDS011;10178;48.034;9.800;2023-03-24T00:04:33;5.95;;;3.33;;
20034;SDS011;10178;48.034;9.800;2023-03-24T00:07:00;7.47;;;3.85;;
20034;SDS011;10178;48.034;9.800;2023-03-24T00:09:27;5.82;;;4.03;;
20034;SDS011;10178;48.034;9.800;2023-03-24T00:11:56;4.93;;;4.43;;
20034;SDS011;10178;48.034;9.800;2023-03-24T00:14:22;6.90;;;3.88;;
20034;SDS011;10178;48.034;9.800;2023-03-24T00:16:49;3.20;;;2.83;;
20034;SDS011;10178;48.034;9.800;2023-03-24T00:19:16;4.45;;;2.70;;
20034;SDS011;10178;48.034;9.800;2023-03-24T00:21:44;4.93;;;2.60;;
20034;SDS011;10178;48.034;9.800;2023-03-24T00:24:10;4.97;;;2.60;;
20034;SDS011;10178;48.034;9.800;2023-03-24T00:26:37;5.78;;;2.42;;
20034;SDS011;10178;48.034;9.800;2023-03-24T00:29:05;2.50;;;2.30;;
20034;SDS011;10178;48.034;9.800;2023-03-24T00:31:32;4.28;;;2.72;;
20034;SDS011;10178;48.034;9.800;2023-03-24T00:33:58;4.82;;;3.53;;
20034;SDS011;10178;48.034;9.800;2023-03-24T00:36:26;5.35;;;2.72;;
20034;SDS011;10178;48.034;9.800;2023-03-24T00:38:53;3.70;;;2.65;;
20034;SDS011;10178;48.034;9.800;2023-03-24T00:41:20;4.38;;;3.88;;
20034;SDS011;10178;48.034;9.800;2023-03-24T00:43:48;6.28;;;4.05;;
20034;SDS011;10178;48.034;9.800;2023-03-24T00:46:15;5.43;;;4.72;;
20034;SDS011;10178;48.034;9.800;2023-03-24T00:48:52;5.78;;;4.28;;
20034;SDS011;10178;48.034;9.800;2023-03-24T00:51:38;5.15;;;4.53;;
20034;SDS011;10178;48.034;9.800;2023-03-24T00:54:06;4.90;;;3.78;;
20034;SDS011;10178;48.034;9.800;2023-03-24T00:56:33;6.95;;;4.28;;
20034;SDS011;10178;48.034;9.800;2023-03-24T00:59:01;5.82;;;3.92;;
20034;SDS011;10178;48.034;9.800;2023-03-24T01:01:28;5.55;;;4.10;;
20034;SDS011;10178;48.034;9.800;2023-03-24T01:03:57;5.90;;;4.75;;
20034;SDS011;10178;48.034;9.800;2023-03-24T01:06:24;3.10;;;2.63;;
20034;SDS011;10178;48.034;9.800;2023-03-24T01:08:50;3.53;;;2.88;;
20034;SDS011;10178;48.034;9.800;2023-03-24T01:11:18;5.50;;;4.07;;
20034;SDS011;10178;48.034;9.800;2023-03-24T01:13:48;5.28;;;3.90;;
20034;SDS011;10178;48.034;9.800;2023-03-24T01:16:14;6.57;;;4.50;;
20034;SDS011;10178;48.034;9.800;2023-03-24T01:18:40;6.00;;;4.57;;
20034;SDS011;10178;48.034;9.800;2023-03-24T01:21:07;3.80;;;3.15;;
20034;SDS011;10178;48.034;9.800;2023-03-24T01:23:35;4.97;;;2.85;;
20034;SDS011;10178;48.034;9.800;2023-03-24T01:26:03;2.75;;;2.40;;
20034;SDS011;10178;48.034;9.800;2023-03-24T01:28:32;3.70;;;3.15;;
20034;SDS011;10178;48.034;9.800;2023-03-24T01:31:02;3.35;;;2.65;;
20034;SDS011;10178;48.034;9.800;2023-03-24T01:33:27;3.85;;;2.70;;
20034;SDS011;10178;48.034;9.800;2023-03-24T01:35:53;3.70;;;2.72;;
20034;SDS011;10178;48.034;9.800;2023-03-24T01:38:19;2.53;;;2.30;;
20034;SDS011;10178;48.034;9.800;2023-03-24T01:40:45;4.25;;;2.65;;
20034;SDS011;10178;48.034;9.800;2023-03-24T01:43:16;3.70;;;2.33;;
20034;SDS011;10178;48.034;9.800;2023-03-24T01:45:55;3.25;;;2.65;;
20034;SDS011;10178;48.034;9.800;2023-03-24T01:51:07;2.92;;;2.30;;
20034;SDS011;10178;48.034;9.800;2023-03-24T01:53:44;9.20;;;4.40;;
20034;SDS011;10178;48.034;9.800;2023-03-24T01:56:32;3.58;;;2.83;;
20034;SDS011;10178;48.034;9.800;2023-03-24T01:59:01;3.00;;;2.70;;
20034;SDS011;10178;48.034;9.800;2023-03-24T02:01:30;4.43;;;3.67;;
20034;SDS011;10178;48.034;9.800;2023-03-24T02:03:57;3.08;;;2.40;;
20034;SDS011;10178;48.034;9.800;2023-03-24T02:06:24;5.75;;;3.95;;
20034;SDS011;10178;48.034;9.800;2023-03-24T02:11:17;2.78;;;2.50;;
20034;SDS011;10178;48.034;9.800;2023-03-24T02:13:43;3.65;;;3.20;;
20034;SDS011;10178;48.034;9.800;2023-03-24T02:57:05;3.10;;;2.80;;
20034;SDS011;10178;48.034;9.800;2023-03-24T02:59:58;4.55;;;4.13;;
20034;SDS011;10178;48.034;9.800;2023-03-24T03:02:31;6.53;;;4.38;;
20034;SDS011;10178;48.034;9.800;2023-03-24T03:05:04;5.10;;;4.35;;
20034;SDS011;10178;48.034;9.800;2023-03-24T03:07:38;8.43;;;4.25;;
20034;SDS011;10178;48.034;9.800;2023-03-24T03:13:09;4.07;;;2.90;;
20034;SDS011;10178;48.034;9.800;2023-03-24T03:15:57;4.15;;;2.95;;
20034;SDS011;10178;48.034;9.800;2023-03-24T03:18:31;4.32;;;2.80;;
20034;SDS011;10178;48.034;9.800;2023-03-24T03:21:07;3.75;;;2.88;;
20034;SDS011;10178;48.034;9.800;2023-03-24T03:23:38;5.20;;;2.78;;
20034;SDS011;10178;48.034;9.800;2023-03-24T03:26:13;4.63;;;3.60;;
20034;SDS011;10178;48.034;9.800;2023-03-24T03:28:43;3.50;;;3.20;;
20034;SDS011;10178;48.034;9.800;2023-03-24T03:31:17;2.92;;;2.50;;
20034;SDS011;10178;48.034;9.800;2023-03-24T03:33:52;4.82;;;3.30;;
20034;SDS011;10178;48.034;9.800;2023-03-24T03:36:32;2.80;;;2.30;;
20034;SDS011;10178;48.034;9.800;2023-03-24T03:41:50;2.70;;;2.50;;
20034;SDS011;10178;48.034;9.800;2023-03-24T03:44:16;2.28;;;2.08;;
20034;SDS011;10178;48.034;9.800;2023-03-24T03:46:42;3.00;;;2.70;;
20034;SDS011;10178;48.034;9.800;2023-03-24T03:49:07;2.78;;;2.42;;
20034;SDS011;10178;48.034;9.800;2023-03-24T03:51:33;3.58;;;2.95;;
20034;SDS011;10178;48.034;9.800;2023-03-24T03:54:00;7.00;;;3.50;;
20034;SDS011;10178;48.034;9.800;2023-03-24T03:56:30;4.50;;;3.25;;
20034;SDS011;10178;48.034;9.800;2023-03-24T03:58:58;4.10;;;3.30;;
20034;SDS011;10178;48.034;9.800;2023-03-24T04:01:26;9.27;;;3.85;;
20034;SDS011;10178;48.034;9.800;2023-03-24T04:04:36;7.88;;;3.72;;
20034;SDS011;10178;48.034;9.800;2023-03-24T04:09:25;4.80;;;3.40;;
20034;SDS011;10178;48.034;9.800;2023-03-24T04:12:25;5.75;;;3.92;;
20034;SDS011;10178;48.034;9.800;2023-03-24T04:20:24;7.50;;;3.88;;
20034;SDS011;10178;48.034;9.800;2023-03-24T04:25:48;5.55;;;3.75;;
20034;SDS011;10178;48.034;9.800;2023-03-24T04:28:29;8.73;;;4.28;;
20034;SDS011;10178;48.034;9.800;2023-03-24T04:31:29;7.13;;;4.18;;
20034;SDS011;10178;48.034;9.800;2023-03-24T04:34:18;7.03;;;4.38;;
20034;SDS011;10178;48.034;9.800;2023-03-24T04:36:50;4.28;;;3.47;;
20034;SDS011;10178;48.034;9.800;2023-03-24T04:39:26;6.72;;;3.85;;
20034;SDS011;10178;48.034;9.800;2023-03-24T04:41:55;3.80;;;3.40;;
20034;SDS011;10178;48.034;9.800;2023-03-24T04:44:23;4.78;;;3.90;;
20034;SDS011;10178;48.034;9.800;2023-03-24T04:46:51;4.53;;;3.42;;
20034;SDS011;10178;48.034;9.800;2023-03-24T04:49:20;4.63;;;3.50;;
20034;SDS011;10178;48.034;9.800;2023-03-24T04:51:49;7.13;;;2.95;;
20034;SDS011;10178;48.034;9.800;2023-03-24T04:54:15;4.47;;;3.40;;
20034;SDS011;10178;48.034;9.800;2023-03-24T04:56:42;4.88;;;3.83;;
20034;SDS011;10178;48.034;9.800;2023-03-24T04:59:11;8.65;;;4.18;;
20034;SDS011;10178;48.034;9.800;2023-03-24T05:01:39;6.50;;;3.53;;
20034;SDS011;10178;48.034;9.800;2023-03-24T05:04:05;6.38;;;4.00;;
20034;SDS011;10178;48.034;9.800;2023-03-24T05:06:32;4.90;;;3.47;;
20034;SDS011;10178;48.034;9.800;2023-03-24T05:08:58;3.45;;;3.10;;
20034;SDS011;10178;48.034;9.800;2023-03-24T05:11:24;3.13;;;2.70;;
20034;SDS011;10178;48.034;9.800;2023-03-24T05:13:51;4.60;;;4.05;;
20034;SDS011;10178;48.034;9.800;2023-03-24T05:16:17;4.80;;;2.42;;
20034;SDS011;10178;48.034;9.800;2023-03-24T05:18:43;5.70;;;4.10;;
20034;SDS011;10178;48.034;9.800;2023-03-24T05:21:09;4.30;;;2.85;;
20034;SDS011;10178;48.034;9.800;2023-03-24T05:23:35;4.45;;;2.50;;
20034;SDS011;10178;48.034;9.800;2023-03-24T05:26:02;4.35;;;2.80;;
20034;SDS011;10178;48.034;9.800;2023-03-24T05:28:27;8.55;;;4.53;;
20034;SDS011;10178;48.034;9.800;2023-03-24T05:30:53;10.18;;;4.40;;
20034;SDS011;10178;48.034;9.800;2023-03-24T05:33:19;7.97;;;4.45;;
20034;SDS011;10178;48.034;9.800;2023-03-24T05:35:45;9.80;;;4.90;;
20034;SDS011;10178;48.034;9.800;2023-03-24T05:38:12;5.82;;;4.10;;
20034;SDS011;10178;48.034;9.800;2023-03-24T05:40:38;2.97;;;2.72;;
20034;SDS011;10178;48.034;9.800;2023-03-24T05:43:03;12.20;;;5.13;;
20034;SDS011;10178;48.034;9.800;2023-03-24T05:45:29;3.13;;;2.83;;
20034;SDS011;10178;48.034;9.800;2023-03-24T05:47:55;5.95;;;4.93;;
20034;SDS011;10178;48.034;9.800;2023-03-24T05:50:21;5.95;;;4.72;;
20034;SDS011;10178;48.034;9.800;2023-03-24T05:52:48;11.10;;;8.07;;
20034;SDS011;10178;48.034;9.800;2023-03-24T05:55:13;4.82;;;2.67;;
20034;SDS011;10178;48.034;9.800;2023-03-24T05:57:40;4.25;;;3.83;;
20034;SDS011;10178;48.034;9.800;2023-03-24T06:00:08;4.20;;;3.80;;
20034;SDS011;10178;48.034;9.800;2023-03-24T06:02:39;5.55;;;4.22;;
20034;SDS011;10178;48.034;9.800;2023-03-24T06:05:05;7.10;;;3.95;;
20034;SDS011;10178;48.034;9.800;2023-03-24T06:07:32;4.18;;;3.78;;
20034;SDS011;10178;48.034;9.800;2023-03-24T06:09:58;7.05;;;3.75;;
20034;SDS011;10178;48.034;9.800;2023-03-24T06:12:27;6.00;;;3.70;;
20034;SDS011;10178;48.034;9.800;2023-03-24T06:14:54;5.63;;;4.10;;
20034;SDS011;10178;48.034;9.800;2023-03-24T06:17:21;5.68;;;4.15;;
20034;SDS011;10178;48.034;9.800;2023-03-24T06:19:48;5.25;;;3.80;;
20034;SDS011;10178;48.034;9.800;2023-03-24T06:22:18;2.95;;;2.65;;
20034;SDS011;10178;48.034;9.800;2023-03-24T06:24:44;7.78;;;3.35;;
20034;SDS011;10178;48.034;9.800;2023-03-24T06:27:14;6.50;;;3.83;;
20034;SDS011;10178;48.034;9.800;2023-03-24T06:29:42;5.10;;;4.10;;
20034;SDS011;10178;48.034;9.800;2023-03-24T06:32:08;5.32;;;3.40;;
20034;SDS011;10178;48.034;9.800;2023-03-24T06:34:34;5.05;;;3.67;;
20034;SDS011;10178;48.034;9.800;2023-03-24T06:37:02;3.67;;;3.10;;
20034;SDS011;10178;48.034;9.800;2023-03-24T06:39:28;3.55;;;2.72;;
20034;SDS011;10178;48.034;9.800;2023-03-24T06:41:53;3.90;;;3.25;;
20034;SDS011;10178;48.034;9.800;2023-03-24T06:44:19;3.75;;;3.10;;
20034;SDS011;10178;48.034;9.800;2023-03-24T06:46:45;3.55;;;2.97;;
20034;SDS011;10178;48.034;9.800;2023-03-24T06:49:11;4.53;;;3.42;;
20034;SDS011;10178;48.034;9.800;2023-03-24T06:51:36;3.08;;;2.60;;
20034;SDS011;10178;48.034;9.800;2023-03-24T06:54:02;5.85;;;3.63;;
20034;SDS011;10178;48.034;9.800;2023-03-24T06:56:28;3.63;;;2.90;;
20034;SDS011;10178;48.034;9.800;2023-03-24T06:58:54;2.75;;;2.55;;
20034;SDS011;10178;48.034;9.800;2023-03-24T07:01:20;3.38;;;3.08;;
20034;SDS011;10178;48.034;9.800;2023-03-24T07:03:46;5.18;;;3.35;;
20034;SDS011;10178;48.034;9.800;2023-03-24T07:06:12;3.42;;;3.13;;
20034;SDS011;10178;48.034;9.800;2023-03-24T07:08:38;7.03;;;3.35;;
20034;SDS011;10178;48.034;9.800;2023-03-24T07:11:04;3.28;;;2.97;;
20034;SDS011;10178;48.034;9.800;2023-03-24T07:13:31;4.18;;;3.42;;
20034;SDS011;10178;48.034;9.800;2023-03-24T07:15:56;3.35;;;2.70;;
20034;SDS011;10178;48.034;9.800;2023-03-24T07:18:22;3.10;;;2.80;;
20034;SDS011;10178;48.034;9.800;2023-03-24T07:20:47;6.50;;;4.00;;
20034;SDS011;10178;48.034;9.800;2023-03-24T07:23:13;9.00;;;3.97;;
20034;SDS011;10178;48.034;9.800;2023-03-24T07:25:39;5.45;;;3.90;;
20034;SDS011;10178;48.034;9.800;2023-03-24T07:28:05;6.35;;;4.03;;
20034;SDS011;10178;48.034;9.800;2023-03-24T07:30:32;5.13;;;4.10;;
20034;SDS011;10178;48.034;9.800;2023-03-24T07:33:00;5.03;;;4.10;;
20034;SDS011;10178;48.034;9.800;2023-03-24T07:35:27;5.32;;;3.80;;
20034;SDS011;10178;48.034;9.800;2023-03-24T07:37:56;7.97;;;4.00;;
20034;SDS011;10178;48.034;9.800;2023-03-24T07:40:23;4.35;;;3.47;;
20034;SDS011;10178;48.034;9.800;2023-03-24T07:42:48;7.78;;;4.10;;
20034;SDS011;10178;48.034;9.800;2023-03-24T07:45:15;5.03;;;3.72;;
20034;SDS011;10178;48.034;9.800;2023-03-24T07:47:42;4.45;;;3.97;;
20034;SDS011;10178;48.034;9.800;2023-03-24T07:50:09;3.97;;;3.28;;
20034;SDS011;10178;48.034;9.800;2023-03-24T07:52:36;5.03;;;4.10;;
20034;SDS011;10178;48.034;9.800;2023-03-24T07:55:02;7.75;;;4.25;;
20034;SDS011;10178;48.034;9.800;2023-03-24T07:57:29;4.95;;;3.83;;
20034;SDS011;10178;48.034;9.800;2023-03-24T07:59:54;6.47;;;4.05;;
20034;SDS011;10178;48.034;9.800;2023-03-24T08:02:20;4.63;;;4.18;;
20034;SDS011;10178;48.034;9.800;2023-03-24T08:04:49;7.30;;;4.63;;
20034;SDS011;10178;48.034;9.800;2023-03-24T08:07:17;5.47;;;4.75;;
20034;SDS011;10178;48.034;9.800;2023-03-24T08:09:43;5.53;;;5.00;;
20034;SDS011;10178;48.034;9.800;2023-03-24T08:12:09;4.57;;;4.00;;
20034;SDS011;10178;48.034;9.800;2023-03-24T08:14:34;4.57;;;3.97;;
20034;SDS011;10178;48.034;9.800;2023-03-24T08:17:00;5.35;;;4.57;;
20034;SDS011;10178;48.034;9.800;2023-03-24T08:19:26;7.72;;;4.18;;
20034;SDS011;10178;48.034;9.800;2023-03-24T08:21:52;5.07;;;3.80;;
20034;SDS011;10178;48.034;9.800;2023-03-24T08:24:18;6.05;;;4.00;;
20034;SDS011;10178;48.034;9.800;2023-03-24T08:26:44;4.60;;;4.13;;
20034;SDS011;10178;48.034;9.800;2023-03-24T08:29:10;4.38;;;3.60;;
20034;SDS011;10178;48.034;9.800;2023-03-24T08:31:36;3.05;;;2.75;;
20034;SDS011;10178;48.034;9.800;2023-03-24T08:34:03;5.22;;;2.60;;
20034;SDS011;10178;48.034;9.800;2023-03-24T08:36:30;4.22;;;3.15;;
20034;SDS011;10178;48.034;9.800;2023-03-24T08:38:56;5.25;;;2.92;;
20034;SDS011;10178;48.034;9.800;2023-03-24T08:41:27;4.97;;;2.78;;
20034;SDS011;10178;48.034;9.800;2023-03-24T08:44:02;3.88;;;3.00;;
20034;SDS011;10178;48.034;9.800;2023-03-24T08:46:31;4.35;;;2.53;;
20034;SDS011;10178;48.034;9.800;2023-03-24T08:49:40;6.25;;;3.55;;
20034;SDS011;10178;48.034;9.800;2023-03-24T08:52:54;3.42;;;2.65;;
20034;SDS011;10178;48.034;9.800;2023-03-24T08:55:42;4.65;;;3.15;;
20034;SDS011;10178;48.034;9.800;2023-03-24T08:58:47;3.38;;;2.97;;
20034;SDS011;10178;48.034;9.800;2023-03-24T09:01:16;5.18;;;3.13;;
20034;SDS011;10178;48.034;9.800;2023-03-24T09:03:46;5.10;;;3.72;;
20034;SDS011;10178;48.034;9.800;2023-03-24T09:06:13;4.70;;;2.72;;
20034;SDS011;10178;48.034;9.800;2023-03-24T09:08:41;3.67;;;3.25;;
20034;SDS011;10178;48.034;9.800;2023-03-24T09:11:16;4.78;;;3.47;;
20034;SDS011;10178;48.034;9.800;2023-03-24T09:13:54;4.25;;;3.17;;
20034;SDS011;10178;48.034;9.800;2023-03-24T09:16:49;3.72;;;3.13;;
20034;SDS011;10178;48.034;9.800;2023-03-24T09:19:16;4.65;;;3.63;;
20034;SDS011;10178;48.034;9.800;2023-03-24T09:21:50;4.10;;;3.70;;
20034;SDS011;10178;48.034;9.800;2023-03-24T09:24:17;5.65;;;3.15;;
20034;SDS011;10178;48.034;9.800;2023-03-24T09:26:54;4.85;;;3.85;;
20034;SDS011;10178;48.034;9.800;2023-03-24T09:29:23;4.68;;;3.30;;
20034;SDS011;10178;48.034;9.800;2023-03-24T09:31:50;3.05;;;2.50;;
20034;SDS011;10178;48.034;9.800;2023-03-24T09:37:30;3.65;;;2.97;;
20034;SDS011;10178;48.034;9.800;2023-03-24T09:39:58;6.22;;;3.40;;
20034;SDS011;10178;48.034;9.800;2023-03-24T09:42:52;4.10;;;3.50;;
20034;SDS011;10178;48.034;9.800;2023-03-24T09:45:29;5.40;;;3.25;;
20034;SDS011;10178;48.034;9.800;2023-03-24T09:48:35;3.13;;;2.67;;
20034;SDS011;10178;48.034;9.800;2023-03-24T09:51:38;4.50;;;3.10;;
20034;SDS011;10178;48.034;9.800;2023-03-24T09:57:01;5.88;;;4.93;;
20034;SDS011;10178;48.034;9.800;2023-03-24T09:59:33;8.43;;;4.90;;
20034;SDS011;10178;48.034;9.800;2023-03-24T10:02:09;3.88;;;3.50;;
20034;SDS011;10178;48.034;9.800;2023-03-24T10:04:46;6.68;;;3.70;;
20034;SDS011;10178;48.034;9.800;2023-03-24T10:10:16;3.45;;;3.15;;
20034;SDS011;10178;48.034;9.800;2023-03-24T10:13:00;4.80;;;3.38;;
20034;SDS011;10178;48.034;9.800;2023-03-24T10:15:45;3.65;;;3.25;;
20034;SDS011;10178;48.034;9.800;2023-03-24T10:18:38;4.75;;;3.67;;
20034;SDS011;10178;48.034;9.800;2023-03-24T10:21:20;4.28;;;3.17;;
20034;SDS011;10178;48.034;9.800;2023-03-24T10:23:53;4.00;;;3.33;;
20034;SDS011;10178;48.034;9.800;2023-03-24T10:26:30;3.75;;;2.88;;
20034;SDS011;10178;48.034;9.800;2023-03-24T10:29:16;3.00;;;2.70;;
20034;SDS011;10178;48.034;9.800;2023-03-24T10:32:21;6.53;;;4.05;;
20034;SDS011;10178;48.034;9.800;2023-03-24T10:34:51;5.95;;;3.92;;
20034;SDS011;10178;48.034;9.800;2023-03-24T10:37:25;5.28;;;3.05;;
20034;SDS011;10178;48.034;9.800;2023-03-24T10:39:54;3.55;;;3.03;;
20034;SDS011;10178;48.034;9.800;2023-03-24T10:42:23;6.05;;;3.63;;
20034;SDS011;10178;48.034;9.800;2023-03-24T10:44:52;5.72;;;3.78;;
20034;SDS011;10178;48.034;9.800;2023-03-24T10:47:19;3.10;;;2.80;;
20034;SDS011;10178;48.034;9.800;2023-03-24T10:49:56;4.80;;;3.83;;
20034;SDS011;10178;48.034;9.800;2023-03-24T10:52:26;3.10;;;2.90;;
20034;SDS011;10178;48.034;9.800;2023-03-24T10:55:03;5.57;;;3.13;;
20034;SDS011;10178;48.034;9.800;2023-03-24T10:57:30;4.32;;;2.70;;
20034;SDS011;10178;48.034;9.800;2023-03-24T11:00:00;4.60;;;3.10;;
20034;SDS011;10178;48.034;9.800;2023-03-24T11:02:34;4.60;;;2.65;;
20034;SDS011;10178;48.034;9.800;2023-03-24T11:05:12;3.30;;;3.00;;
20034;SDS011;10178;48.034;9.800;2023-03-24T11:07:47;6.03;;;2.88;;
20034;SDS011;10178;48.034;9.800;2023-03-24T11:10:18;5.18;;;2.80;;
20034;SDS011;10178;48.034;9.800;2023-03-24T11:15:19;5.32;;;2.90;;
20034;SDS011;10178;48.034;9.800;2023-03-24T11:20:45;3.90;;;3.00;;
20034;SDS011;10178;48.034;9.800;2023-03-24T11:23:24;2.60;;;2.40;;
20034;SDS011;10178;48.034;9.800;2023-03-24T11:28:57;4.60;;;2.40;;
20034;SDS011;10178;48.034;9.800;2023-03-24T11:31:30;3.05;;;2.63;;
20034;SDS011;10178;48.034;9.800;2023-03-24T11:34:18;2.85;;;2.53;;
20034;SDS011;10178;48.034;9.800;2023-03-24T11:37:12;2.35;;;2.15;;
20034;SDS011;10178;48.034;9.800;2023-03-24T11:40:03;5.40;;;2.65;;
20034;SDS011;10178;48.034;9.800;2023-03-24T11:42:37;3.50;;;2.80;;
20034;SDS011;10178;48.034;9.800;2023-03-24T11:48:25;2.33;;;2.13;;
20034;SDS011;10178;48.034;9.800;2023-03-24T11:51:04;4.07;;;2.20;;
20034;SDS011;10178;48.034;9.800;2023-03-24T11:54:39;4.63;;;1.58;;
20034;SDS011;10178;48.034;9.800;2023-03-24T12:07:18;1.80;;;1.30;;
20034;SDS011;10178;48.034;9.800;2023-03-24T12:23:58;2.65;;;1.70;;
20034;SDS011;10178;48.034;9.800;2023-03-24T12:26:32;1.63;;;1.52;;
20034;SDS011;10178;48.034;9.800;2023-03-24T12:35:47;1.45;;;1.35;;
20034;SDS011;10178;48.034;9.800;2023-03-24T12:38:34;1.42;;;1.30;;
20034;SDS011;10178;48.034;9.800;2023-03-24T12:56:19;3.17;;;1.33;;
20034;SDS011;10178;48.034;9.800;2023-03-24T12:58:55;1.35;;;1.15;;
20034;SDS011;10178;48.034;9.800;2023-03-24T13:01:42;3.72;;;1.17;;
20034;SDS011;10178;48.034;9.800;2023-03-24T13:04:17;1.67;;;1.27;;
20034;SDS011;10178;48.034;9.800;2023-03-24T13:07:04;4.00;;;1.38;;
20034;SDS011;10178;48.034;9.800;2023-03-24T13:09:42;1.77;;;1.00;;
20034;SDS011;10178;48.034;9.800;2023-03-24T13:15:29;1.10;;;1.00;;
20034;SDS011;10178;48.034;9.800;2023-03-24T13:20:32;1.38;;;1.20;;
20034;SDS011;10178;48.034;9.800;2023-03-24T13:29:25;2.65;;;1.88;;
20034;SDS011;10178;48.034;9.800;2023-03-24T13:32:11;3.42;;;2.05;;
20034;SDS011;10178;48.034;9.800;2023-03-24T13:37:14;2.03;;;1.90;;
20034;SDS011;10178;48.034;9.800;2023-03-24T13:40:45;1.58;;;1.40;;
20034;SDS011;10178;48.034;9.800;2023-03-24T13:42:59;3.22;;;2.10;;
20034;SDS011;10178;48.034;9.800;2023-03-24T13:45:39;2.78;;;2.15;;
20034;SDS011;10178;48.034;9.800;2023-03-24T13:50:38;4.18;;;2.72;;
20034;SDS011;10178;48.034;9.800;2023-03-24T13:53:14;3.97;;;2.50;;
20034;SDS011;10178;48.034;9.800;2023-03-24T13:55:45;2.72;;;1.88;;
20034;SDS011;10178;48.034;9.800;2023-03-24T13:58:17;3.50;;;1.83;;
20034;SDS011;10178;48.034;9.800;2023-03-24T14:03:41;1.60;;;1.30;;
20034;SDS011;10178;48.034;9.800;2023-03-24T14:06:09;1.70;;;1.60;;
20034;SDS011;10178;48.034;9.800;2023-03-24T14:14:06;1.30;;;0.90;;
20034;SDS011;10178;48.034;9.800;2023-03-24T14:19:40;1.30;;;1.20;;
20034;SDS011;10178;48.034;9.800;2023-03-24T14:22:09;0.98;;;0.95;;
20034;SDS011;10178;48.034;9.800;2023-03-24T14:24:36;1.17;;;0.98;;
20034;SDS011;10178;48.034;9.800;2023-03-24T14:27:22;1.23;;;0.90;;
20034;SDS011;10178;48.034;9.800;2023-03-24T14:32:43;1.17;;;0.80;;
20034;SDS011;10178;48.034;9.800;2023-03-24T14:38:00;1.77;;;0.90;;
20034;SDS011;10178;48.034;9.800;2023-03-24T14:40:43;2.97;;;0.98;;
20034;SDS011;10178;48.034;9.800;2023-03-24T14:54:15;0.80;;;0.80;;
20034;SDS011;10178;48.034;9.800;2023-03-24T14:56:45;1.42;;;0.80;;
20034;SDS011;10178;48.034;9.800;2023-03-24T14:59:20;0.80;;;0.80;;
20034;SDS011;10178;48.034;9.800;2023-03-24T15:07:41;1.15;;;0.70;;
20034;SDS011;10178;48.034;9.800;2023-03-24T15:10:15;2.25;;;1.00;;
20034;SDS011;10178;48.034;9.800;2023-03-24T15:12:46;1.85;;;0.90;;
20034;SDS011;10178;48.034;9.800;2023-03-24T15:15:17;1.42;;;0.80;;
20034;SDS011;10178;48.034;9.800;2023-03-24T15:17:45;0.65;;;0.60;;
20034;SDS011;10178;48.034;9.800;2023-03-24T15:20:54;0.90;;;0.80;;
20034;SDS011;10178;48.034;9.800;2023-03-24T15:23:05;1.05;;;0.80;;
20034;SDS011;10178;48.034;9.800;2023-03-24T15:25:32;5.50;;;0.70;;
20034;SDS011;10178;48.034;9.800;2023-03-24T15:27:57;1.25;;;0.70;;
20034;SDS011;10178;48.034;9.800;2023-03-24T15:30:23;0.70;;;0.70;;
20034;SDS011;10178;48.034;9.800;2023-03-24T15:32:50;0.80;;;0.68;;
20034;SDS011;10178;48.034;9.800;2023-03-24T15:35:17;1.95;;;0.70;;
20034;SDS011;10178;48.034;9.800;2023-03-24T15:37:48;1.23;;;1.13;;
20034;SDS011;10178;48.034;9.800;2023-03-24T15:42:52;0.70;;;0.70;;
20034;SDS011;10178;48.034;9.800;2023-03-24T15:48:12;1.90;;;1.00;;
20034;SDS011;10178;48.034;9.800;2023-03-24T15:53:38;1.63;;;0.90;;
20034;SDS011;10178;48.034;9.800;2023-03-24T15:56:29;2.05;;;1.10;;
20034;SDS011;10178;48.034;9.800;2023-03-24T15:59:05;0.77;;;0.77;;
20034;SDS011;10178;48.034;9.800;2023-03-24T16:01:36;1.58;;;0.88;;
20034;SDS011;10178;48.034;9.800;2023-03-24T16:04:06;1.60;;;1.00;;
20034;SDS011;10178;48.034;9.800;2023-03-24T16:06:37;1.40;;;1.30;;
20034;SDS011;10178;48.034;9.800;2023-03-24T16:09:07;2.30;;;0.88;;
20034;SDS011;10178;48.034;9.800;2023-03-24T16:11:43;0.88;;;0.85;;
20034;SDS011;10178;48.034;9.800;2023-03-24T16:14:25;2.67;;;1.20;;
20034;SDS011;10178;48.034;9.800;2023-03-24T16:17:00;1.92;;;1.67;;
20034;SDS011;10178;48.034;9.800;2023-03-24T16:19:29;1.77;;;1.30;;
20034;SDS011;10178;48.034;9.800;2023-03-24T16:21:57;4.82;;;2.78;;
20034;SDS011;10178;48.034;9.800;2023-03-24T17:02:18;1.50;;;1.40;;
20034;SDS011;10178;48.034;9.800;2023-03-24T17:04:45;1.88;;;1.40;;
20034;SDS011;10178;48.034;9.800;2023-03-24T17:07:11;2.60;;;1.30;;
20034;SDS011;10178;48.034;9.800;2023-03-24T17:09:36;4.18;;;1.33;;
20034;SDS011;10178;48.034;9.800;2023-03-24T17:12:02;3.95;;;3.63;;
20034;SDS011;10178;48.034;9.800;2023-03-24T17:14:28;3.83;;;3.50;;
20034;SDS011;10178;48.034;9.800;2023-03-24T17:16:55;4.15;;;3.60;;
20034;SDS011;10178;48.034;9.800;2023-03-24T17:19:21;4.65;;;3.67;;
20034;SDS011;10178;48.034;9.800;2023-03-24T17:24:14;9.98;;;5.45;;
20034;SDS011;10178;48.034;9.800;2023-03-24T17:26:42;13.98;;;6.90;;
20034;SDS011;10178;48.034;9.800;2023-03-24T17:29:08;18.20;;;8.25;;
20034;SDS011;10178;48.034;9.800;2023-03-24T17:31:36;6.75;;;4.63;;
20034;SDS011;10178;48.034;9.800;2023-03-24T17:34:01;7.78;;;4.45;;
20034;SDS011;10178;48.034;9.800;2023-03-24T17:36:27;4.38;;;3.13;;
20034;SDS011;10178;48.034;9.800;2023-03-24T17:38:53;4.45;;;3.28;;
20034;SDS011;10178;48.034;9.800;2023-03-24T17:41:18;3.53;;;2.28;;
20034;SDS011;10178;48.034;9.800;2023-03-24T17:43:44;2.78;;;2.38;;
20034;SDS011;10178;48.034;9.800;2023-03-24T17:46:10;3.28;;;2.70;;
20034;SDS011;10178;48.034;9.800;2023-03-24T17:48:39;1.73;;;1.40;;
20034;SDS011;10178;48.034;9.800;2023-03-24T17:51:05;1.95;;;1.02;;
20034;SDS011;10178;48.034;9.800;2023-03-24T17:53:31;1.50;;;1.10;;
20034;SDS011;10178;48.034;9.800;2023-03-24T17:55:58;1.40;;;1.05;;
20034;SDS011;10178;48.034;9.800;2023-03-24T17:58:31;1.73;;;1.45;;
20034;SDS011;10178;48.034;9.800;2023-03-24T18:00:59;2.45;;;2.10;;
20034;SDS011;10178;48.034;9.800;2023-03-24T18:03:26;1.20;;;1.10;;
20034;SDS011;10178;48.034;9.800;2023-03-24T18:05:52;2.42;;;1.75;;
20034;SDS011;10178;48.034;9.800;2023-03-24T18:08:17;2.55;;;2.00;;
20034;SDS011;10178;48.034;9.800;2023-03-24T18:10:43;2.63;;;1.80;;
20034;SDS011;10178;48.034;9.800;2023-03-24T18:13:09;1.60;;;1.33;;
20034;SDS011;10178;48.034;9.800;2023-03-24T18:15:35;3.95;;;1.52;;
20034;SDS011;10178;48.034;9.800;2023-03-24T18:18:04;2.08;;;1.30;;
20034;SDS011;10178;48.034;9.800;2023-03-24T18:20:30;3.15;;;1.58;;
20034;SDS011;10178;48.034;9.800;2023-03-24T18:22:56;2.22;;;1.48;;
20034;SDS011;10178;48.034;9.800;2023-03-24T18:25:21;1.42;;;1.30;;
20034;SDS011;10178;48.034;9.800;2023-03-24T18:27:47;4.18;;;1.63;;
20034;SDS011;10178;48.034;9.800;2023-03-24T18:30:13;2.58;;;1.60;;
20034;SDS011;10178;48.034;9.800;2023-03-24T18:32:41;3.92;;;1.52;;
20034;SDS011;10178;48.034;9.800;2023-03-24T18:35:08;1.88;;;1.52;;
20034;SDS011;10178;48.034;9.800;2023-03-24T18:37:35;10.07;;;1.88;;
20034;SDS011;10178;48.034;9.800;2023-03-24T18:40:02;2.85;;;1.40;;
20034;SDS011;10178;48.034;9.800;2023-03-24T18:42:35;1.20;;;1.10;;
20034;SDS011;10178;48.034;9.800;2023-03-24T18:45:01;2.28;;;1.50;;
20034;SDS011;10178;48.034;9.800;2023-03-24T18:47:27;2.00;;;1.50;;
20034;SDS011;10178;48.034;9.800;2023-03-24T18:49:53;2.10;;;1.33;;
20034;SDS011;10178;48.034;9.800;2023-03-24T18:52:18;3.58;;;1.60;;
20034;SDS011;10178;48.034;9.800;2023-03-24T18:54:44;2.50;;;1.20;;
20034;SDS011;10178;48.034;9.800;2023-03-24T18:57:10;2.42;;;1.10;;
20034;SDS011;10178;48.034;9.800;2023-03-24T18:59:36;4.25;;;1.50;;
20034;SDS011;10178;48.034;9.800;2023-03-24T19:02:02;3.47;;;1.50;;